createdAt,value
2023-04-18T00:00:42.314Z,16.92
2023-04-18T00:03:09.739Z,16.50
2023-04-18T00:05:36.743Z,18.08
2023-04-18T00:08:03.807Z,17.48
2023-04-18T00:10:30.514Z,16.67
2023-04-18T00:12:58.281Z,15.23
2023-04-18T00:15:25.812Z,16.90
2023-04-18T00:17:56.461Z,17.27
2023-04-18T00:20:25.975Z,20.23
2023-04-18T00:22:53.197Z,18.48
2023-04-18T00:25:19.878Z,14.25
2023-04-18T00:27:46.507Z,19.88
2023-04-18T00:30:13.472Z,15.88
2023-04-18T00:32:40.198Z,17.95
2023-04-18T00:35:07.312Z,21.00
2023-04-18T00:37:33.945Z,17.55
2023-04-18T00:40:00.591Z,18.77
2023-04-18T00:42:28.796Z,21.42
2023-04-18T00:44:55.515Z,20.80
2023-04-18T00:47:22.270Z,21.08
2023-04-18T00:49:49.253Z,20.00
2023-04-18T00:52:17.230Z,23.98
2023-04-18T00:54:45.108Z,22.30
2023-04-18T00:57:12.980Z,22.60
2023-04-18T00:59:39.629Z,25.90
2023-04-18T01:02:06.545Z,22.52
2023-04-18T01:04:33.573Z,23.38
2023-04-18T01:07:01.385Z,23.33
2023-04-18T01:09:28.346Z,24.48
2023-04-18T01:11:55.075Z,25.05
2023-04-18T01:14:21.954Z,22.23
2023-04-18T01:16:48.592Z,28.58
2023-04-18T01:19:17.425Z,25.50
2023-04-18T01:21:44.756Z,22.33
2023-04-18T01:24:16.054Z,27.35
2023-04-18T01:26:44.900Z,30.20
2023-04-18T01:29:11.964Z,27.15
2023-04-18T01:31:39.970Z,26.35
2023-04-18T01:34:07.198Z,23.23
2023-04-18T01:36:37.009Z,26.30
2023-04-18T01:39:03.789Z,30.73
2023-04-18T01:41:32.567Z,32.65
2023-04-18T01:44:00.253Z,25.40
2023-04-18T01:46:27.492Z,23.48
2023-04-18T01:48:54.246Z,25.77
2023-04-18T01:51:20.944Z,25.88
2023-04-18T01:53:47.753Z,28.45
2023-04-18T01:56:14.379Z,28.95
2023-04-18T01:58:41.677Z,29.83
2023-04-18T02:01:08.584Z,32.13
2023-04-18T02:03:35.751Z,29.33
2023-04-18T02:06:03.755Z,32.10
2023-04-18T02:08:32.508Z,29.00
2023-04-18T02:11:01.009Z,30.38
2023-04-18T02:13:28.054Z,31.55
2023-04-18T02:15:56.533Z,25.23
2023-04-18T02:18:24.911Z,29.70
2023-04-18T02:20:51.980Z,27.55
2023-04-18T02:23:18.863Z,25.52
2023-04-18T02:25:45.713Z,32.00
2023-04-18T02:28:12.376Z,29.02
2023-04-18T02:30:39.023Z,24.27
2023-04-18T02:33:05.732Z,25.33
2023-04-18T02:35:32.430Z,29.88
2023-04-18T02:37:59.211Z,27.05
2023-04-18T02:40:25.853Z,28.33
2023-04-18T02:42:52.505Z,31.17
2023-04-18T02:45:19.195Z,27.63
2023-04-18T02:47:55.446Z,27.17
2023-04-18T02:50:22.603Z,26.88
2023-04-18T02:52:49.296Z,25.50
2023-04-18T02:55:16.144Z,33.17
2023-04-18T02:57:43.070Z,31.38
2023-04-18T03:00:10.336Z,38.45
2023-04-18T03:02:37.091Z,31.20
2023-04-18T03:05:04.136Z,31.10
2023-04-18T03:07:31.259Z,34.78
2023-04-18T03:09:57.981Z,26.65
2023-04-18T03:12:24.699Z,34.15
2023-04-18T03:14:51.364Z,31.17
2023-04-18T03:17:18.525Z,29.17
2023-04-18T03:19:46.308Z,30.63
2023-04-18T03:22:13.958Z,30.83
2023-04-18T03:24:40.831Z,31.20
2023-04-18T03:27:07.598Z,27.08
2023-04-18T03:29:34.260Z,25.77
2023-04-18T03:32:00.936Z,29.65
2023-04-18T03:34:27.629Z,29.45
2023-04-18T03:36:54.340Z,28.83
2023-04-18T03:39:20.996Z,36.63
2023-04-18T03:41:47.629Z,33.60
2023-04-18T03:44:14.656Z,32.90
2023-04-18T03:46:41.818Z,37.88
2023-04-18T03:49:08.658Z,31.95
2023-04-18T03:51:44.278Z,33.08
2023-04-18T03:54:11.011Z,33.25
2023-04-18T03:56:37.940Z,31.20
2023-04-18T03:59:04.596Z,28.88
2023-04-18T04:01:31.353Z,28.38
2023-04-18T04:03:58.180Z,29.90
2023-04-18T04:06:25.050Z,34.72
2023-04-18T04:08:51.748Z,32.33
2023-04-18T04:11:18.676Z,26.23
2023-04-18T04:13:45.334Z,38.17
2023-04-18T04:16:12.147Z,39.17
2023-04-18T04:18:38.861Z,31.38
2023-04-18T04:21:06.615Z,38.25
2023-04-18T04:23:34.227Z,32.83
2023-04-18T04:26:04.844Z,36.75
2023-04-18T04:28:31.866Z,33.67
2023-04-18T04:30:59.284Z,35.15
2023-04-18T04:33:28.663Z,36.30
2023-04-18T04:35:56.390Z,31.58
2023-04-18T04:38:23.117Z,36.88
2023-04-18T04:40:50.039Z,37.55
2023-04-18T04:43:17.171Z,34.88
2023-04-18T04:45:44.843Z,34.60
2023-04-18T04:48:11.506Z,39.60
2023-04-18T04:50:40.526Z,33.75
2023-04-18T04:53:07.718Z,28.73
2023-04-18T04:55:36.886Z,42.85
2023-04-18T04:58:03.563Z,29.75
2023-04-18T05:00:31.980Z,35.90
2023-04-18T05:02:58.819Z,30.75
2023-04-18T05:05:25.608Z,35.78
2023-04-18T05:07:52.322Z,37.90
2023-04-18T05:10:19.122Z,33.47
2023-04-18T05:12:45.874Z,42.85
2023-04-18T05:15:13.557Z,27.58
2023-04-18T05:17:40.302Z,32.72
2023-04-18T05:20:07.543Z,31.50
2023-04-18T05:22:34.325Z,30.48
2023-04-18T05:25:01.434Z,33.97
2023-04-18T05:27:30.312Z,35.30
2023-04-18T05:29:56.952Z,29.23
2023-04-18T05:32:23.668Z,32.60
2023-04-18T05:34:51.087Z,34.50
2023-04-18T05:37:20.540Z,41.47
2023-04-18T05:39:47.241Z,34.75
2023-04-18T05:42:13.934Z,35.78
2023-04-18T05:44:40.698Z,29.10
2023-04-18T05:47:08.045Z,33.20
2023-04-18T05:49:36.656Z,37.45
2023-04-18T05:52:03.455Z,28.23
2023-04-18T05:54:30.111Z,36.05
2023-04-18T05:56:57.268Z,34.15
2023-04-18T05:59:24.169Z,30.00
2023-04-18T06:01:51.405Z,35.70
2023-04-18T06:04:20.260Z,35.20
2023-04-18T06:06:47.522Z,36.40
2023-04-18T06:09:14.219Z,30.13
2023-04-18T06:11:40.842Z,32.72
2023-04-18T06:14:09.982Z,34.60
2023-04-18T06:16:37.437Z,30.52
2023-04-18T06:19:06.841Z,36.28
2023-04-18T06:21:33.526Z,35.42
2023-04-18T06:24:01.576Z,32.53
2023-04-18T06:26:30.420Z,27.75
2023-04-18T06:28:57.067Z,38.00
2023-04-18T06:31:24.621Z,30.25
2023-04-18T06:33:51.300Z,34.90
2023-04-18T06:36:19.801Z,30.98
2023-04-18T06:38:46.429Z,27.60
2023-04-18T06:41:16.688Z,29.13
2023-04-18T06:43:55.746Z,28.38
2023-04-18T06:46:29.472Z,26.27
2023-04-18T06:48:56.291Z,29.85
2023-04-18T06:51:22.983Z,28.00
2023-04-18T06:53:54.274Z,31.90
2023-04-18T06:56:21.528Z,28.52
2023-04-18T06:58:48.880Z,24.92
2023-04-18T07:04:06.917Z,24.92
2023-04-18T07:06:35.593Z,29.67
2023-04-18T07:09:02.695Z,28.50
2023-04-18T07:11:29.810Z,27.35
2023-04-18T07:16:47.121Z,24.02
2023-04-18T07:19:16.060Z,28.02
2023-04-18T07:21:44.817Z,27.98
2023-04-18T07:24:12.451Z,24.85
2023-04-18T07:26:39.494Z,30.48
2023-04-18T07:31:59.345Z,27.17
2023-04-18T07:34:29.769Z,27.27
2023-04-18T07:37:01.121Z,23.75
2023-04-18T07:39:28.495Z,21.80
2023-04-18T07:41:55.663Z,24.85
2023-04-18T07:44:22.311Z,24.73
2023-04-18T07:46:49.663Z,25.80
2023-04-18T07:49:17.815Z,22.75
2023-04-18T07:51:45.980Z,21.15
2023-04-18T07:54:12.641Z,20.48
2023-04-18T07:56:39.290Z,24.13
2023-04-18T07:59:06.452Z,27.92
2023-04-18T08:01:33.432Z,23.80
2023-04-18T08:04:02.705Z,17.20
2023-04-18T08:06:29.486Z,18.33
2023-04-18T08:08:57.730Z,25.15
2023-04-18T08:11:24.350Z,15.93
2023-04-18T08:13:51.594Z,18.05
2023-04-18T08:16:18.362Z,25.85
2023-04-18T08:18:45.067Z,18.73
2023-04-18T08:21:11.789Z,17.10
2023-04-18T08:23:38.677Z,16.13
2023-04-18T08:26:07.556Z,18.27
2023-04-18T08:28:34.174Z,18.35
2023-04-18T08:31:03.042Z,13.27
2023-04-18T08:33:29.859Z,11.52
2023-04-18T08:35:56.523Z,14.75
2023-04-18T08:38:23.321Z,14.50
2023-04-18T08:40:50.071Z,13.65
2023-04-18T08:43:17.013Z,13.32
2023-04-18T08:45:44.887Z,14.05
2023-04-18T08:48:16.268Z,14.63
2023-04-18T08:50:43.646Z,19.58
2023-04-18T08:53:10.571Z,14.70
2023-04-18T08:55:37.890Z,14.57
2023-04-18T08:58:07.831Z,14.77
2023-04-18T09:00:35.135Z,18.38
2023-04-18T09:03:02.997Z,14.45
2023-04-18T09:05:29.862Z,14.70
2023-04-18T09:07:56.799Z,18.90
2023-04-18T09:10:31.072Z,16.33
2023-04-18T09:12:58.869Z,16.77
2023-04-18T09:15:29.823Z,18.08
2023-04-18T09:20:38.078Z,14.88
2023-04-18T09:23:14.610Z,15.00
2023-04-18T09:25:44.512Z,14.00
2023-04-18T09:28:29.650Z,15.23
2023-04-18T09:31:15.182Z,16.45
2023-04-18T09:33:52.718Z,13.43
2023-04-18T09:36:22.733Z,13.00
2023-04-18T09:38:53.708Z,14.17
2023-04-18T09:41:23.680Z,12.13
2023-04-18T09:43:50.560Z,13.68
2023-04-18T09:46:24.438Z,11.25
2023-04-18T09:48:51.646Z,13.82
2023-04-18T09:51:18.812Z,9.93
2023-04-18T09:53:49.065Z,13.85
2023-04-18T09:56:27.707Z,11.52
2023-04-18T09:59:10.170Z,11.35
2023-04-18T10:01:37.544Z,10.48
2023-04-18T10:04:06.615Z,11.45
2023-04-18T10:06:39.749Z,8.80
2023-04-18T10:09:09.089Z,11.50
2023-04-18T10:11:36.418Z,10.25
2023-04-18T10:14:07.998Z,9.98
2023-04-18T10:16:37.633Z,11.05
2023-04-18T10:19:27.186Z,9.65
2023-04-18T10:21:55.589Z,9.57
2023-04-18T10:24:49.413Z,11.15
2023-04-18T10:27:17.474Z,13.20
2023-04-18T10:29:52.286Z,9.43
2023-04-18T10:32:24.911Z,11.07
2023-04-18T10:34:53.849Z,13.35
2023-04-18T10:37:22.732Z,12.90
2023-04-18T10:40:00.135Z,11.15
2023-04-18T10:42:45.599Z,12.55
2023-04-18T10:45:25.378Z,11.77
2023-04-18T10:48:30.242Z,11.90
2023-04-18T10:51:16.868Z,10.63
2023-04-18T10:53:51.519Z,11.43
2023-04-18T10:56:18.386Z,12.15
2023-04-18T10:58:51.104Z,12.43
2023-04-18T11:01:30.324Z,9.90
2023-04-18T11:03:59.522Z,9.23
2023-04-18T11:06:31.144Z,9.40
2023-04-18T11:09:14.506Z,10.07
2023-04-18T11:11:42.539Z,11.48
2023-04-18T11:14:09.658Z,8.82
2023-04-18T11:16:37.328Z,9.73
2023-04-18T11:19:21.166Z,8.48
2023-04-18T11:21:48.531Z,9.55
2023-04-18T11:24:24.639Z,7.97
2023-04-18T11:26:56.067Z,7.72
2023-04-18T11:29:24.108Z,7.68
2023-04-18T11:31:54.555Z,8.80
2023-04-18T11:34:31.643Z,8.50
2023-04-18T11:36:58.932Z,8.43
2023-04-18T11:39:27.865Z,10.48
2023-04-18T11:41:58.518Z,8.80
2023-04-18T11:44:27.868Z,8.90
2023-04-18T11:46:54.558Z,8.73
2023-04-18T11:49:33.013Z,9.63
2023-04-18T11:52:02.935Z,9.77
2023-04-18T11:54:43.925Z,7.55
2023-04-18T11:57:29.689Z,8.68
2023-04-18T11:59:58.161Z,8.50
2023-04-18T12:02:41.598Z,9.25
2023-04-18T12:05:09.596Z,9.45
2023-04-18T12:07:44.591Z,9.95
2023-04-18T12:10:20.516Z,8.85
2023-04-18T12:12:51.558Z,9.23
2023-04-18T12:15:19.422Z,11.50
2023-04-18T12:17:55.305Z,9.55
2023-04-18T12:20:26.695Z,10.90
2023-04-18T12:22:54.969Z,9.98
2023-04-18T12:25:26.907Z,12.57
2023-04-18T12:27:55.388Z,11.90
2023-04-18T12:30:23.514Z,11.95
2023-04-18T12:32:55.178Z,9.95
2023-04-18T12:35:23.101Z,10.02
2023-04-18T12:37:52.033Z,9.70
2023-04-18T12:40:19.572Z,8.80
2023-04-18T12:42:48.278Z,8.32
2023-04-18T12:45:15.976Z,9.90
2023-04-18T12:47:45.539Z,9.65
2023-04-18T12:50:19.349Z,9.98
2023-04-18T12:52:48.577Z,9.88
2023-04-18T12:55:15.730Z,10.70
2023-04-18T12:57:43.422Z,11.07
2023-04-18T13:00:13.564Z,7.85
2023-04-18T13:02:44.177Z,7.40
2023-04-18T13:05:13.360Z,8.32
2023-04-18T13:07:42.336Z,8.05
2023-04-18T13:10:11.847Z,7.45
2023-04-18T13:12:39.781Z,5.97
2023-04-18T13:15:07.508Z,7.45
2023-04-18T13:17:36.694Z,5.88
2023-04-18T13:20:06.673Z,7.07
2023-04-18T13:22:36.368Z,5.88
2023-04-18T13:25:05.663Z,7.60
2023-04-18T13:27:32.582Z,8.40
2023-04-18T13:29:59.435Z,7.55
2023-04-18T13:32:26.953Z,7.07
2023-04-18T13:34:55.954Z,8.57
2023-04-18T13:37:23.593Z,9.02
2023-04-18T13:39:50.299Z,7.30
2023-04-18T13:42:19.237Z,9.52
2023-04-18T13:44:46.323Z,6.85
2023-04-18T13:47:13.117Z,8.15
2023-04-18T13:49:40.836Z,8.80
2023-04-18T13:52:07.712Z,8.70
2023-04-18T13:54:34.527Z,6.72
2023-04-18T13:57:04.833Z,7.65
2023-04-18T13:59:32.521Z,6.28
2023-04-18T14:02:01.198Z,6.40
2023-04-18T14:04:28.237Z,5.53
2023-04-18T14:06:55.613Z,7.43
2023-04-18T14:09:22.287Z,6.57
2023-04-18T14:11:48.997Z,7.00
2023-04-18T14:14:15.676Z,7.82
2023-04-18T14:16:42.423Z,6.53
2023-04-18T14:19:10.752Z,7.00
2023-04-18T14:21:37.459Z,9.25
2023-04-18T14:24:08.693Z,5.43
2023-04-18T14:26:35.620Z,6.93
2023-04-18T14:29:04.014Z,9.15
2023-04-18T14:31:32.005Z,8.15
2023-04-18T14:33:58.624Z,6.18
2023-04-18T14:36:26.266Z,7.45
2023-04-18T14:38:54.554Z,5.20
2023-04-18T14:41:21.385Z,6.18
2023-04-18T14:43:48.358Z,7.30
2023-04-18T14:46:18.048Z,5.78
2023-04-18T14:48:46.847Z,5.95
2023-04-18T14:51:15.875Z,8.43
2023-04-18T14:53:44.072Z,7.90
2023-04-18T14:56:10.741Z,10.30
2023-04-18T14:58:37.503Z,12.05
2023-04-18T15:01:04.546Z,9.38
2023-04-18T15:03:31.665Z,8.85
2023-04-18T15:05:58.438Z,10.00
2023-04-18T15:08:25.274Z,8.20
2023-04-18T15:10:51.926Z,11.65
2023-04-18T15:13:18.564Z,11.23
2023-04-18T15:15:54.537Z,10.68
2023-04-18T15:18:21.421Z,9.40
2023-04-18T15:20:48.110Z,9.35
2023-04-18T15:23:14.989Z,8.85
2023-04-18T15:25:44.736Z,11.07
2023-04-18T15:28:15.248Z,12.38
2023-04-18T15:30:41.990Z,8.98
2023-04-18T15:33:08.927Z,13.60
2023-04-18T15:35:35.985Z,11.90
2023-04-18T15:38:02.822Z,10.18
2023-04-18T15:40:30.557Z,10.60
2023-04-18T15:42:59.422Z,12.48
2023-04-18T15:45:27.424Z,9.93
2023-04-18T15:47:54.175Z,10.40
2023-04-18T15:50:21.969Z,10.85
2023-04-18T15:52:48.628Z,11.27
2023-04-18T15:55:15.565Z,10.05
2023-04-18T15:57:42.323Z,9.32
2023-04-18T16:00:17.874Z,11.50
2023-04-18T16:02:45.863Z,9.00
2023-04-18T16:05:13.507Z,10.02
2023-04-18T16:07:41.551Z,9.70
2023-04-18T16:10:11.776Z,11.00
2023-04-18T16:12:39.760Z,11.32
2023-04-18T16:15:08.536Z,13.50
2023-04-18T16:17:38.978Z,11.48
2023-04-18T16:20:08.131Z,10.35
2023-04-18T16:22:34.941Z,9.30
2023-04-18T16:25:01.826Z,11.75
2023-04-18T16:27:28.555Z,9.82
2023-04-18T16:29:55.249Z,9.50
2023-04-18T16:32:21.988Z,9.77
2023-04-18T16:34:48.762Z,12.20
2023-04-18T16:37:15.641Z,11.40
2023-04-18T16:39:42.270Z,13.70
2023-04-18T16:42:09.009Z,11.25
2023-04-18T16:44:35.761Z,11.10
2023-04-18T16:47:07.252Z,13.57
2023-04-18T16:49:34.571Z,10.20
2023-04-18T16:52:01.869Z,10.95
2023-04-18T16:54:28.637Z,12.68
2023-04-18T16:56:55.457Z,12.32
2023-04-18T16:59:22.146Z,13.63
2023-04-18T17:01:48.851Z,11.45
2023-04-18T17:04:16.191Z,10.98
2023-04-18T17:06:43.738Z,14.25
2023-04-18T17:09:13.400Z,9.15
2023-04-18T17:11:41.105Z,8.13
2023-04-18T17:14:08.655Z,10.50
2023-04-18T17:16:39.521Z,10.55
2023-04-18T17:21:34.291Z,11.70
2023-04-18T17:24:03.920Z,12.27
2023-04-18T17:26:33.032Z,12.07
2023-04-18T17:29:06.651Z,9.93
2023-04-18T17:31:33.928Z,11.10
2023-04-18T17:34:00.723Z,13.65
2023-04-18T17:36:27.721Z,10.10
2023-04-18T17:38:55.137Z,9.73
2023-04-18T17:41:24.364Z,12.40
2023-04-18T17:43:51.072Z,12.02
2023-04-18T17:46:18.670Z,9.65
2023-04-18T17:48:45.426Z,12.63
2023-04-18T17:51:12.093Z,11.85
2023-04-18T17:53:38.808Z,11.43
2023-04-18T17:56:05.476Z,10.30
2023-04-18T17:58:32.176Z,10.15
2023-04-18T18:00:58.849Z,9.35
2023-04-18T18:03:25.821Z,10.00
2023-04-18T18:05:54.711Z,10.98
2023-04-18T18:08:21.943Z,10.57
2023-04-18T18:10:51.772Z,9.63
2023-04-18T18:13:18.403Z,11.82
2023-04-18T18:15:45.913Z,8.73
2023-04-18T18:18:12.563Z,8.82
2023-04-18T18:20:42.426Z,12.13
2023-04-18T18:23:10.782Z,11.23
2023-04-18T18:25:40.074Z,11.05
2023-04-18T18:28:08.726Z,9.82
2023-04-18T18:30:37.393Z,10.77
2023-04-18T18:33:04.404Z,9.77
2023-04-18T18:35:31.084Z,11.98
2023-04-18T18:37:57.803Z,16.13
2023-04-18T18:40:24.463Z,10.27
2023-04-18T18:42:53.711Z,8.30
2023-04-18T18:45:23.335Z,9.95
2023-04-18T18:47:50.008Z,10.07
2023-04-18T18:50:16.788Z,10.05
2023-04-18T18:52:43.426Z,9.45
2023-04-18T18:55:11.079Z,8.93
2023-04-18T18:57:37.807Z,8.52
2023-04-18T19:00:14.043Z,8.98
2023-04-18T19:02:40.871Z,9.10
2023-04-18T19:05:08.040Z,8.25
2023-04-18T19:07:34.668Z,10.40
2023-04-18T19:10:01.775Z,12.98
2023-04-18T19:12:29.180Z,10.07
2023-04-18T19:14:56.573Z,12.85
2023-04-18T19:17:25.397Z,11.07
2023-04-18T19:19:53.260Z,9.48
2023-04-18T19:22:19.912Z,11.18
2023-04-18T19:24:46.946Z,10.82
2023-04-18T19:27:13.622Z,11.23
2023-04-18T19:29:40.570Z,13.50
2023-04-18T19:32:09.447Z,9.75
2023-04-18T19:34:36.298Z,10.80
2023-04-18T19:37:05.619Z,11.60
2023-04-18T19:39:32.304Z,15.45
2023-04-18T19:41:58.894Z,10.98
2023-04-18T19:44:27.607Z,9.70
2023-04-18T19:46:54.269Z,11.45
2023-04-18T19:49:22.391Z,13.02
2023-04-18T19:51:51.348Z,11.25
2023-04-18T19:54:21.650Z,11.07
2023-04-18T19:56:48.640Z,9.57
2023-04-18T19:59:15.637Z,11.48
2023-04-18T20:01:43.494Z,13.63
2023-04-18T20:04:10.415Z,11.60
2023-04-18T20:06:37.710Z,9.55
2023-04-18T20:09:05.999Z,10.82
2023-04-18T20:11:32.677Z,13.73
2023-04-18T20:13:59.333Z,12.85
2023-04-18T20:16:26.021Z,10.57
2023-04-18T20:18:54.804Z,10.10
2023-04-18T20:21:21.732Z,12.45
2023-04-18T20:23:48.370Z,14.57
2023-04-18T20:26:15.166Z,10.23
2023-04-18T20:28:41.811Z,11.45
2023-04-18T20:31:08.980Z,11.13
2023-04-18T20:33:36.460Z,10.38
2023-04-18T20:36:03.585Z,9.75
2023-04-18T20:38:30.509Z,9.68
2023-04-18T20:41:00.744Z,11.38
2023-04-18T20:43:27.935Z,11.13
2023-04-18T20:46:00.753Z,12.60
2023-04-18T20:48:27.396Z,10.43
2023-04-18T20:50:54.020Z,11.23
2023-04-18T20:53:21.497Z,11.60
2023-04-18T20:55:48.808Z,11.27
2023-04-18T20:58:15.660Z,9.40
2023-04-18T21:00:43.802Z,13.07
2023-04-18T21:03:13.592Z,10.93
2023-04-18T21:05:40.419Z,11.07
2023-04-18T21:08:07.080Z,10.23
2023-04-18T21:10:34.076Z,11.60
2023-04-18T21:13:00.962Z,14.23
2023-04-18T21:15:27.670Z,10.65
2023-04-18T21:17:55.829Z,9.15
2023-04-18T21:20:22.662Z,9.90
2023-04-18T21:22:49.250Z,12.32
2023-04-18T21:25:16.552Z,10.55
2023-04-18T21:27:43.186Z,11.63
2023-04-18T21:30:10.008Z,11.18
2023-04-18T21:32:36.810Z,10.40
2023-04-18T21:35:03.689Z,9.13
2023-04-18T21:37:30.860Z,11.45
2023-04-18T21:39:57.491Z,10.15
2023-04-18T21:42:24.170Z,10.57
2023-04-18T21:44:50.774Z,9.93
2023-04-18T21:47:17.418Z,9.80
2023-04-18T21:49:44.071Z,11.35
2023-04-18T21:52:11.138Z,13.80
2023-04-18T21:54:37.903Z,11.27
2023-04-18T21:57:05.878Z,9.10
2023-04-18T21:59:32.726Z,15.88
2023-04-18T22:01:59.440Z,12.85
2023-04-18T22:04:27.012Z,8.13
2023-04-18T22:06:54.170Z,9.52
2023-04-18T22:09:21.306Z,11.45
2023-04-18T22:11:48.378Z,10.50
2023-04-18T22:14:15.157Z,11.90
2023-04-18T22:16:42.355Z,10.10
2023-04-18T22:19:09.071Z,10.23
2023-04-18T22:21:35.718Z,8.55
2023-04-18T22:24:02.716Z,10.90
2023-04-18T22:26:29.373Z,11.40
2023-04-18T22:28:56.229Z,11.27
2023-04-18T22:31:22.950Z,15.32
2023-04-18T22:33:49.606Z,12.45
2023-04-18T22:36:16.301Z,10.13
2023-04-18T22:38:42.964Z,10.55
2023-04-18T22:41:09.625Z,13.15
2023-04-18T22:43:36.303Z,15.10
2023-04-18T22:46:03.485Z,10.13
2023-04-18T22:48:31.077Z,15.07
2023-04-18T22:50:57.737Z,12.07
2023-04-18T22:53:24.353Z,11.73
2023-04-18T22:55:51.014Z,11.50
2023-04-18T22:58:17.702Z,12.60
2023-04-18T23:00:44.379Z,10.63
2023-04-18T23:03:11.583Z,10.55
2023-04-18T23:05:38.429Z,11.20
2023-04-18T23:08:06.864Z,12.60
2023-04-18T23:10:34.053Z,12.25
2023-04-18T23:13:00.894Z,11.13
2023-04-18T23:15:27.578Z,11.98
2023-04-18T23:17:54.366Z,13.77
2023-04-18T23:20:21.524Z,14.65
2023-04-18T23:22:51.254Z,13.57
2023-04-18T23:25:19.284Z,12.85
2023-04-18T23:27:46.264Z,13.85
2023-04-18T23:30:13.197Z,13.55
2023-04-18T23:32:39.942Z,13.90
2023-04-18T23:35:07.000Z,13.05
2023-04-18T23:37:33.709Z,11.48
2023-04-18T23:40:00.539Z,11.45
2023-04-18T23:42:27.358Z,12.23
2023-04-18T23:44:54.583Z,12.75
2023-04-18T23:47:21.837Z,15.00
2023-04-18T23:49:48.527Z,11.55
2023-04-18T23:52:15.241Z,14.48
2023-04-18T23:54:41.938Z,12.02
2023-04-18T23:57:08.571Z,12.70
2023-04-18T23:59:35.195Z,13.55
